Time;durP1;ratioP1;P1;durP2;ratioP2;P2;SDS_P1;SDS_P2;PMS_P1;PMS_P2;Temp;Humidity;BMP_temperature;BMP_pressure;BME280_temperature;BME280_humidity;BME280_pressure;Samples;Min_cycle;Max_cycle;Signal;HPM_P1;HPM_P2
2024/03/19 00:00:14;;;;;;;19.27;15.43;;;8.10;99.90;;;;;;4983632;28;20027;-87
2024/03/19 00:02:40;;;;;;;20.80;16.27;;;8.10;99.90;;;;;;4983218;28;20121;-87
2024/03/19 00:05:07;;;;;;;17.83;15.53;;;8.10;99.90;;;;;;4983980;28;20149;-87
2024/03/19 00:07:32;;;;;;;16.37;14.37;;;8.10;99.90;;;;;;4983959;28;20033;-87
2024/03/19 00:09:58;;;;;;;17.97;14.63;;;8.10;99.90;;;;;;4983557;28;20030;-87
2024/03/19 00:12:24;;;;;;;18.03;15.50;;;8.10;99.90;;;;;;4983446;28;20033;-88
2024/03/19 00:14:53;;;;;;;18.87;15.90;;;8.00;99.90;;;;;;4983202;28;20113;-88
2024/03/19 00:17:18;;;;;;;19.90;15.00;;;8.10;99.90;;;;;;4982392;28;20030;-87
2024/03/19 00:19:44;;;;;;;18.33;15.57;;;8.00;99.90;;;;;;4984065;28;20528;-88
2024/03/19 00:22:10;;;;;;;17.63;14.97;;;8.00;99.90;;;;;;4983230;28;20478;-87
2024/03/19 00:24:35;;;;;;;18.90;14.70;;;8.00;99.90;;;;;;4983107;28;20026;-88
2024/03/19 00:27:01;;;;;;;18.57;14.33;;;8.00;99.90;;;;;;4982528;28;20438;-88
2024/03/19 00:29:27;;;;;;;20.47;15.67;;;8.00;99.90;;;;;;4983637;28;20682;-88
2024/03/19 00:31:53;;;;;;;19.40;15.17;;;8.00;99.90;;;;;;4985419;28;20038;-88
2024/03/19 00:34:18;;;;;;;17.63;14.53;;;8.00;99.90;;;;;;4987046;28;20022;-88
2024/03/19 00:36:44;;;;;;;20.10;15.43;;;8.10;99.90;;;;;;5001092;28;20088;-88
2024/03/19 00:39:11;;;;;;;19.53;14.97;;;8.00;99.90;;;;;;4986948;28;20053;-88
2024/03/19 00:41:38;;;;;;;20.47;16.33;;;8.00;99.90;;;;;;4986980;28;20031;-87
2024/03/19 00:44:04;;;;;;;28.07;16.93;;;8.00;99.90;;;;;;4985054;28;20022;-86
2024/03/19 00:46:33;;;;;;;20.23;15.53;;;8.00;99.90;;;;;;4984337;28;20088;-87
2024/03/19 00:48:59;;;;;;;22.97;16.73;;;8.00;99.90;;;;;;4999425;28;20019;-87
2024/03/19 00:51:25;;;;;;;22.13;16.80;;;8.00;99.90;;;;;;4984352;28;20089;-87
2024/03/19 00:53:50;;;;;;;27.13;16.93;;;8.00;99.90;;;;;;4985405;28;20095;-87
2024/03/19 00:56:17;;;;;;;21.60;17.03;;;8.00;99.90;;;;;;4982920;28;20084;-87
2024/03/19 00:58:42;;;;;;;23.97;17.80;;;8.00;99.90;;;;;;4983147;28;20062;-86
2024/03/19 01:01:08;;;;;;;29.40;17.93;;;8.00;99.90;;;;;;4984536;28;20054;-87
2024/03/19 01:03:33;;;;;;;23.80;17.40;;;8.00;99.90;;;;;;4984322;28;20034;-86
2024/03/19 01:06:00;;;;;;;23.50;17.43;;;8.00;99.90;;;;;;4984696;28;20509;-87
2024/03/19 01:08:27;;;;;;;27.23;18.37;;;8.00;99.90;;;;;;4984353;28;20057;-87
2024/03/19 01:10:53;;;;;;;25.20;17.07;;;8.00;99.90;;;;;;4984029;28;20034;-87
2024/03/19 01:13:18;;;;;;;25.93;18.53;;;8.00;99.90;;;;;;4986396;28;20030;-87
2024/03/19 01:15:44;;;;;;;24.13;16.83;;;8.00;99.90;;;;;;4997007;28;20482;-86
2024/03/19 01:18:09;;;;;;;26.87;18.43;;;8.00;99.90;;;;;;4985930;28;20534;-86
2024/03/19 01:20:35;;;;;;;25.37;18.63;;;7.90;99.90;;;;;;4986941;28;20022;-87
2024/03/19 01:23:01;;;;;;;25.80;18.03;;;7.90;99.90;;;;;;4984604;28;20868;-87
2024/03/19 01:25:26;;;;;;;25.27;18.13;;;7.90;99.90;;;;;;4983524;28;21459;-87
2024/03/19 01:27:53;;;;;;;29.80;20.07;;;7.90;99.90;;;;;;4983642;28;20036;-86
2024/03/19 01:30:19;;;;;;;25.53;18.20;;;7.90;99.90;;;;;;4984738;28;20031;-87
2024/03/19 01:32:45;;;;;;;28.07;18.47;;;7.90;99.90;;;;;;4985056;28;20142;-87
2024/03/19 01:35:12;;;;;;;25.30;18.30;;;7.90;99.90;;;;;;4983902;28;20023;-87
2024/03/19 01:37:38;;;;;;;28.90;19.60;;;7.90;99.90;;;;;;4984116;28;20030;-86
2024/03/19 01:40:04;;;;;;;30.43;19.37;;;7.90;99.90;;;;;;4983060;28;20911;-87
2024/03/19 01:42:30;;;;;;;29.27;18.83;;;7.90;99.90;;;;;;4982838;28;20042;-87
2024/03/19 01:45:22;;;;;;;27.03;18.67;;;7.90;99.90;;;;;;4982751;28;20057;-87
2024/03/19 01:47:48;;;;;;;29.73;18.13;;;7.90;99.90;;;;;;4980034;28;20026;-86
2024/03/19 01:50:14;;;;;;;26.47;19.63;;;7.80;99.90;;;;;;4983055;28;20054;-87
2024/03/19 01:52:43;;;;;;;27.37;19.17;;;7.80;99.90;;;;;;4983130;28;20113;-87
2024/03/19 01:55:10;;;;;;;25.30;18.47;;;7.90;99.90;;;;;;4982434;28;20022;-87
2024/03/19 01:57:36;;;;;;;30.23;19.03;;;7.90;99.90;;;;;;4983765;28;20073;-87
2024/03/19 02:00:04;;;;;;;27.77;18.97;;;7.90;99.90;;;;;;4982893;28;20712;-87
2024/03/19 02:02:36;;;;;;;25.00;17.97;;;7.90;99.90;;;;;;4981354;28;20046;-87
2024/03/19 02:05:04;;;;;;;28.53;18.67;;;7.90;99.90;;;;;;4981902;28;20022;-86
2024/03/19 02:07:30;;;;;;;27.77;18.57;;;7.90;99.90;;;;;;4982123;28;20022;-87
2024/03/19 02:09:55;;;;;;;25.93;18.77;;;7.90;99.90;;;;;;4981128;28;20130;-87
2024/03/19 02:12:25;;;;;;;28.10;19.83;;;7.80;99.90;;;;;;4982364;28;20041;-87
2024/03/19 02:14:52;;;;;;;30.70;20.80;;;7.80;99.90;;;;;;4981286;28;20605;-86
2024/03/19 02:17:18;;;;;;;31.03;18.97;;;7.80;99.90;;;;;;4981286;28;20045;-87
2024/03/19 02:19:44;;;;;;;29.57;19.47;;;7.90;99.90;;;;;;4982182;28;20273;-86
2024/03/19 02:22:10;;;;;;;26.47;18.47;;;7.80;99.90;;;;;;4981829;28;20041;-86
2024/03/19 02:24:38;;;;;;;28.33;18.60;;;7.80;99.90;;;;;;4997121;28;20089;-87
2024/03/19 02:27:04;;;;;;;27.73;18.57;;;7.80;99.90;;;;;;4983139;28;20027;-86
2024/03/19 02:29:30;;;;;;;25.73;18.73;;;7.80;99.90;;;;;;4982277;28;21532;-87
2024/03/19 02:31:55;;;;;;;28.67;19.07;;;7.80;99.90;;;;;;4981491;28;20050;-87
2024/03/19 02:34:21;;;;;;;29.33;18.97;;;7.80;99.90;;;;;;4982405;28;20057;-87
2024/03/19 02:36:46;;;;;;;26.63;18.00;;;7.80;99.90;;;;;;4981716;28;20018;-86
2024/03/19 02:39:12;;;;;;;25.97;18.23;;;7.80;99.90;;;;;;4981842;28;20801;-87
2024/03/19 02:41:38;;;;;;;26.07;17.93;;;7.80;99.90;;;;;;4980824;28;20049;-87
2024/03/19 02:44:04;;;;;;;25.60;18.40;;;7.80;99.90;;;;;;4981609;28;20022;-88
2024/03/19 02:46:30;;;;;;;27.17;18.13;;;7.80;99.90;;;;;;4985332;28;20022;-87
2024/03/19 02:48:55;;;;;;;26.23;18.77;;;7.80;99.90;;;;;;4982479;28;20018;-87
2024/03/19 02:51:21;;;;;;;25.67;18.47;;;7.80;99.90;;;;;;4982270;28;20343;-86
2024/03/19 02:53:47;;;;;;;27.50;18.27;;;7.70;99.90;;;;;;4982656;28;20124;-86
2024/03/19 02:56:12;;;;;;;26.77;18.30;;;7.80;99.90;;;;;;4981633;28;20117;-87
2024/03/19 02:58:38;;;;;;;27.77;18.47;;;7.70;99.90;;;;;;4981862;28;20077;-87
2024/03/19 03:01:04;;;;;;;27.20;18.20;;;7.70;99.90;;;;;;4982617;28;20033;-87
2024/03/19 03:03:29;;;;;;;26.77;18.47;;;7.70;99.90;;;;;;4981045;28;20065;-87
2024/03/19 03:05:55;;;;;;;28.10;18.57;;;7.70;99.90;;;;;;4981387;28;20045;-86
2024/03/19 03:08:20;;;;;;;26.90;19.30;;;7.70;99.90;;;;;;4981772;28;20017;-86
2024/03/19 03:10:47;;;;;;;28.07;18.87;;;7.60;99.90;;;;;;4982485;28;20027;-88
2024/03/19 03:13:12;;;;;;;29.90;18.93;;;7.60;99.90;;;;;;4980855;28;20068;-88
2024/03/19 03:15:38;;;;;;;29.03;19.57;;;7.60;99.90;;;;;;4980383;28;20129;-86
2024/03/19 03:18:04;;;;;;;28.67;19.17;;;7.60;99.90;;;;;;4981126;28;20118;-87
2024/03/19 03:20:29;;;;;;;26.70;18.23;;;7.60;99.90;;;;;;4982288;28;20038;-87
2024/03/19 03:22:55;;;;;;;27.37;18.77;;;7.60;99.90;;;;;;4985964;28;20046;-87
2024/03/19 03:25:21;;;;;;;27.60;19.07;;;7.60;99.90;;;;;;4985801;28;20034;-86
2024/03/19 03:27:47;;;;;;;26.30;18.40;;;7.60;99.90;;;;;;4986084;28;20033;-87
2024/03/19 03:30:13;;;;;;;28.23;18.83;;;7.60;99.90;;;;;;5001022;28;20026;-87
2024/03/19 03:32:41;;;;;;;27.23;18.70;;;7.60;99.90;;;;;;4984323;28;20045;-88
2024/03/19 03:35:09;;;;;;;28.47;18.80;;;7.60;99.90;;;;;;4999264;28;20114;-88
2024/03/19 03:37:35;;;;;;;31.13;19.10;;;7.60;99.90;;;;;;4985554;28;20030;-87
2024/03/19 03:40:02;;;;;;;29.03;18.57;;;7.60;99.90;;;;;;4985059;28;20089;-87
2024/03/19 03:42:28;;;;;;;27.93;18.57;;;7.60;99.90;;;;;;4985686;28;20057;-87
2024/03/19 03:44:54;;;;;;;27.17;18.87;;;7.60;99.90;;;;;;4984277;28;20022;-88
2024/03/19 03:47:20;;;;;;;29.67;19.30;;;7.60;99.90;;;;;;4981927;28;20050;-87
2024/03/19 03:49:45;;;;;;;26.20;18.63;;;7.60;99.90;;;;;;4984809;28;20181;-86
2024/03/19 03:52:11;;;;;;;28.33;19.47;;;7.60;99.90;;;;;;4984885;28;20034;-87
2024/03/19 03:54:37;;;;;;;27.37;18.97;;;7.60;99.90;;;;;;4984374;28;20029;-87
2024/03/19 03:57:03;;;;;;;28.70;19.10;;;7.60;99.90;;;;;;4982706;28;20033;-88
2024/03/19 03:59:28;;;;;;;31.27;20.03;;;7.60;99.90;;;;;;4999379;28;20093;-87
2024/03/19 04:01:54;;;;;;;25.73;17.87;;;7.60;99.90;;;;;;4983224;28;20053;-87
2024/03/19 04:04:20;;;;;;;28.90;19.03;;;7.60;99.90;;;;;;4984538;28;20038;-87
2024/03/19 04:06:48;;;;;;;33.43;19.00;;;7.60;99.90;;;;;;4984205;28;20081;-87
2024/03/19 04:09:14;;;;;;;26.00;17.70;;;7.60;99.90;;;;;;5002258;28;20019;-87
2024/03/19 04:11:40;;;;;;;29.93;19.30;;;7.60;99.90;;;;;;4987639;28;20034;-87
2024/03/19 04:14:06;;;;;;;30.73;19.77;;;7.60;99.90;;;;;;4987411;28;20437;-87
2024/03/19 04:16:31;;;;;;;28.00;19.03;;;7.60;99.90;;;;;;4984560;28;20030;-88
2024/03/19 04:18:57;;;;;;;27.93;18.83;;;7.60;99.90;;;;;;4982674;28;20318;-87
2024/03/19 04:21:24;;;;;;;30.73;20.57;;;7.60;99.90;;;;;;4984807;28;20492;-87
2024/03/19 04:23:50;;;;;;;30.67;20.03;;;7.60;99.90;;;;;;4981782;28;21429;-88
2024/03/19 04:26:16;;;;;;;30.90;20.63;;;7.60;99.90;;;;;;4983475;28;20191;-87
2024/03/19 04:28:42;;;;;;;29.87;20.33;;;7.60;99.90;;;;;;4983876;28;20033;-86
2024/03/19 04:31:07;;;;;;;32.30;20.50;;;7.60;99.90;;;;;;4983809;28;20053;-87
2024/03/19 04:33:33;;;;;;;29.70;18.87;;;7.60;99.90;;;;;;4983562;28;20077;-88
2024/03/19 04:35:58;;;;;;;28.67;19.00;;;7.60;99.90;;;;;;4983028;28;20022;-87
2024/03/19 04:38:25;;;;;;;26.27;18.70;;;7.60;99.90;;;;;;4983666;28;20066;-86
2024/03/19 04:40:50;;;;;;;25.87;17.27;;;7.60;99.90;;;;;;4983042;28;20065;-86
2024/03/19 04:43:16;;;;;;;27.73;18.80;;;7.60;99.90;;;;;;4983636;28;20117;-87
2024/03/19 04:45:41;;;;;;;25.97;18.37;;;7.60;99.90;;;;;;4982966;28;20036;-87
2024/03/19 04:48:07;;;;;;;31.20;19.70;;;7.60;99.90;;;;;;4983214;28;20471;-87
2024/03/19 04:50:33;;;;;;;27.20;18.43;;;7.60;99.90;;;;;;4982957;28;20704;-86
2024/03/19 04:52:58;;;;;;;30.77;19.67;;;7.60;99.90;;;;;;4983630;28;20041;-87
2024/03/19 04:55:24;;;;;;;27.43;18.03;;;7.60;99.90;;;;;;4982421;28;20480;-87
2024/03/19 04:57:49;;;;;;;27.07;18.67;;;7.60;99.90;;;;;;4983257;28;20080;-87
2024/03/19 05:00:18;;;;;;;27.53;18.00;;;7.60;99.90;;;;;;4982704;28;20375;-87
2024/03/19 05:02:45;;;;;;;29.40;19.73;;;7.60;99.90;;;;;;4982387;28;20058;-87
2024/03/19 05:05:12;;;;;;;28.40;18.30;;;7.60;99.90;;;;;;4982104;28;20034;-86
2024/03/19 05:07:41;;;;;;;27.53;18.40;;;7.60;99.90;;;;;;4977434;28;20045;-87
2024/03/19 05:10:08;;;;;;;28.87;19.63;;;7.60;99.90;;;;;;4976865;28;20031;-86
2024/03/19 05:12:33;;;;;;;27.03;18.20;;;7.60;99.90;;;;;;4981214;28;20692;-87
2024/03/19 05:14:59;;;;;;;26.30;18.00;;;7.60;99.90;;;;;;4980655;28;20049;-87
2024/03/19 05:17:25;;;;;;;26.47;18.57;;;7.60;99.90;;;;;;4982321;28;20110;-87
2024/03/19 05:19:50;;;;;;;24.10;18.13;;;7.60;99.90;;;;;;4997594;28;20433;-87
2024/03/19 05:22:16;;;;;;;26.50;18.13;;;7.60;99.90;;;;;;4982293;28;21008;-73
2024/03/19 05:24:41;;;;;;;25.50;18.47;;;7.60;99.90;;;;;;4981373;28;20018;-87
2024/03/19 05:27:08;;;;;;;29.30;18.53;;;7.60;99.90;;;;;;4980529;28;20030;-88
2024/03/19 05:29:33;;;;;;;25.77;18.20;;;7.60;99.90;;;;;;4981751;28;20530;-87
2024/03/19 05:32:00;;;;;;;25.77;17.73;;;7.60;99.90;;;;;;4981062;28;20038;-88
2024/03/19 05:34:25;;;;;;;25.73;17.60;;;7.60;99.90;;;;;;4982805;28;20076;-87
2024/03/19 05:36:51;;;;;;;29.30;23.33;;;7.60;99.90;;;;;;4981958;28;20698;-87
2024/03/19 05:39:16;;;;;;;25.77;19.33;;;7.60;99.90;;;;;;4981730;28;20498;-88
2024/03/19 05:41:42;;;;;;;27.00;18.20;;;7.60;99.90;;;;;;4982757;28;20666;-87
2024/03/19 05:44:07;;;;;;;25.07;17.23;;;7.60;99.90;;;;;;4981413;28;21475;-88
2024/03/19 05:46:33;;;;;;;25.10;17.77;;;7.60;99.90;;;;;;4982237;28;20447;-87
2024/03/19 05:48:59;;;;;;;26.97;19.20;;;7.60;99.90;;;;;;4982629;28;20046;-86
2024/03/19 05:51:24;;;;;;;23.83;17.80;;;7.70;99.90;;;;;;4982848;28;20031;-84
2024/03/19 05:53:50;;;;;;;29.60;18.60;;;7.70;99.90;;;;;;4981218;28;20018;-74
2024/03/19 05:56:15;;;;;;;27.87;18.80;;;7.70;99.90;;;;;;4980723;28;20034;-83
2024/03/19 05:58:42;;;;;;;31.43;18.67;;;7.80;99.90;;;;;;4983020;28;20049;-83
2024/03/19 06:01:08;;;;;;;33.53;20.03;;;7.80;99.90;;;;;;4986523;28;20128;-84
2024/03/19 06:03:33;;;;;;;32.50;18.90;;;7.80;99.90;;;;;;4986535;28;20712;-84
2024/03/19 06:06:03;;;;;;;33.60;20.50;;;7.80;99.90;;;;;;4985777;28;20030;-83
2024/03/19 06:08:29;;;;;;;34.57;19.73;;;7.80;99.90;;;;;;4986524;28;20977;-83
2024/03/19 06:10:56;;;;;;;35.70;19.90;;;7.80;99.90;;;;;;4986197;28;20109;-84
2024/03/19 06:13:22;;;;;;;31.83;18.33;;;7.90;99.90;;;;;;4987030;28;20176;-83
2024/03/19 06:15:48;;;;;;;38.80;21.03;;;7.90;99.90;;;;;;4986189;28;20708;-84
2024/03/19 06:18:14;;;;;;;33.60;19.13;;;7.90;99.90;;;;;;4986993;28;20121;-83
2024/03/19 06:20:39;;;;;;;35.10;19.57;;;7.90;99.90;;;;;;4988128;28;20379;-83
2024/03/19 06:23:05;;;;;;;34.83;20.20;;;7.90;99.90;;;;;;4987937;28;21457;-84
2024/03/19 06:25:30;;;;;;;34.03;20.53;;;7.90;99.90;;;;;;4986390;28;20103;-84
2024/03/19 06:27:56;;;;;;;33.27;19.70;;;8.00;99.90;;;;;;4988190;28;20501;-83
2024/03/19 06:30:22;;;;;;;32.57;19.27;;;8.10;99.90;;;;;;4987310;28;20030;-84
2024/03/19 06:32:47;;;;;;;32.50;18.93;;;8.10;99.90;;;;;;4986625;28;20053;-84
2024/03/19 06:35:14;;;;;;;32.67;19.37;;;8.10;99.90;;;;;;4986743;28;20034;-84
2024/03/19 06:37:43;;;;;;;30.20;18.97;;;8.20;99.90;;;;;;4988134;28;20062;-84
2024/03/19 06:40:10;;;;;;;33.17;19.70;;;8.20;99.90;;;;;;4987408;28;20018;-83
2024/03/19 06:42:36;;;;;;;32.27;19.13;;;8.30;99.90;;;;;;4987613;28;20265;-84
2024/03/19 06:45:04;;;;;;;32.07;19.10;;;8.30;99.90;;;;;;4985261;28;20034;-84
2024/03/19 06:47:30;;;;;;;29.67;18.60;;;8.40;99.90;;;;;;5000875;28;21493;-83
2024/03/19 06:49:55;;;;;;;33.90;20.50;;;8.40;99.90;;;;;;4981949;28;20098;-84
2024/03/19 06:52:20;;;;;;;32.60;20.67;;;8.40;99.90;;;;;;4986790;28;20046;-83
2024/03/19 06:54:46;;;;;;;31.87;19.87;;;8.40;99.90;;;;;;4985503;28;20402;-84
2024/03/19 06:57:12;;;;;;;33.13;21.40;;;8.50;99.90;;;;;;4990630;28;20896;-84
2024/03/19 06:59:37;;;;;;;28.90;18.47;;;8.50;99.90;;;;;;4989370;28;21052;-84
2024/03/19 07:02:06;;;;;;;27.60;18.60;;;8.50;99.90;;;;;;4990836;28;20305;-84
2024/03/19 07:04:33;;;;;;;29.47;19.33;;;8.50;99.90;;;;;;4989839;28;20033;-83
2024/03/19 07:06:58;;;;;;;34.67;20.03;;;8.50;99.90;;;;;;4990715;28;20632;-84
2024/03/19 07:09:24;;;;;;;32.70;20.63;;;8.50;99.90;;;;;;4991090;28;20105;-83
2024/03/19 07:11:50;;;;;;;32.30;19.87;;;8.50;99.90;;;;;;4990199;28;20034;-83
2024/03/19 07:14:16;;;;;;;31.73;19.17;;;8.60;99.90;;;;;;4990161;28;20030;-83
2024/03/19 07:16:41;;;;;;;30.17;19.37;;;8.60;99.90;;;;;;4984077;28;20537;-83
2024/03/19 07:19:08;;;;;;;32.20;21.07;;;8.70;99.90;;;;;;4990104;28;20045;-83
2024/03/19 07:21:34;;;;;;;32.50;20.13;;;8.70;99.90;;;;;;4991755;28;20065;-84
2024/03/19 07:24:00;;;;;;;29.67;19.13;;;8.70;99.90;;;;;;4991764;28;20026;-83
2024/03/19 07:26:26;;;;;;;29.83;20.27;;;8.70;99.90;;;;;;4990857;28;20025;-83
2024/03/19 07:28:51;;;;;;;31.10;20.20;;;8.70;99.90;;;;;;4991230;28;20022;-84
2024/03/19 07:31:18;;;;;;;29.97;19.73;;;8.80;99.90;;;;;;4987793;28;20041;-83
2024/03/19 07:33:43;;;;;;;28.00;19.40;;;8.80;99.90;;;;;;4991062;28;20127;-83
2024/03/19 07:36:10;;;;;;;27.80;18.47;;;8.80;99.90;;;;;;4989727;28;20030;-84
2024/03/19 07:38:37;;;;;;;29.63;19.93;;;8.80;99.90;;;;;;4991091;28;20152;-83
2024/03/19 07:41:02;;;;;;;29.00;19.13;;;8.90;99.90;;;;;;4991904;28;20113;-83
2024/03/19 07:43:29;;;;;;;29.33;20.03;;;8.90;99.90;;;;;;5005654;28;20131;-83
2024/03/19 07:45:55;;;;;;;30.03;19.27;;;8.90;99.90;;;;;;4992415;28;20022;-83
2024/03/19 07:48:21;;;;;;;37.03;21.57;;;8.90;99.90;;;;;;4993230;28;20113;-83
2024/03/19 07:50:47;;;;;;;32.03;22.07;;;8.80;99.90;;;;;;4991287;28;20157;-83
2024/03/19 07:53:14;;;;;;;37.00;21.83;;;8.80;99.90;;;;;;4990288;28;20034;-84
2024/03/19 07:55:39;;;;;;;30.40;20.20;;;8.80;99.90;;;;;;4989889;28;21018;-83
2024/03/19 07:58:05;;;;;;;30.57;20.30;;;8.90;99.90;;;;;;4990791;28;20036;-84
2024/03/19 08:00:31;;;;;;;32.03;20.93;;;8.90;99.90;;;;;;4989513;28;20113;-83
2024/03/19 08:02:57;;;;;;;31.77;20.27;;;8.90;99.90;;;;;;4989573;28;20034;-84
2024/03/19 08:05:23;;;;;;;30.93;18.37;;;9.00;99.90;;;;;;5004100;28;20033;-83
2024/03/19 08:07:48;;;;;;;24.77;17.13;;;9.10;99.90;;;;;;4989879;28;20035;-84
2024/03/19 08:10:14;;;;;;;25.53;16.67;;;9.10;99.90;;;;;;4990184;28;20030;-83
2024/03/19 08:12:40;;;;;;;21.90;15.83;;;9.20;99.90;;;;;;4990610;28;20050;-84
2024/03/19 08:15:06;;;;;;;25.67;16.03;;;9.30;99.90;;;;;;4988399;28;20085;-83
2024/03/19 08:17:32;;;;;;;21.33;16.30;;;9.50;99.90;;;;;;4989538;28;20041;-83
2024/03/19 08:19:58;;;;;;;26.60;16.43;;;9.50;99.90;;;;;;4990916;28;20029;-83
2024/03/19 08:22:24;;;;;;;20.03;14.23;;;9.60;99.90;;;;;;4989173;28;20026;-83
2024/03/19 08:24:50;;;;;;;21.73;16.50;;;9.70;99.90;;;;;;4988581;28;21281;-83
2024/03/19 08:27:16;;;;;;;22.70;16.57;;;9.70;99.90;;;;;;4988334;28;20081;-83
2024/03/19 08:29:42;;;;;;;22.07;16.13;;;9.70;99.90;;;;;;4990984;28;20683;-83
2024/03/19 08:32:09;;;;;;;21.80;15.80;;;9.70;99.90;;;;;;4989881;28;20026;-83
2024/03/19 08:34:35;;;;;;;20.13;14.73;;;9.80;99.90;;;;;;4988518;28;20087;-83
2024/03/19 08:37:01;;;;;;;20.93;15.03;;;9.80;99.90;;;;;;4988343;28;20034;-83
2024/03/19 08:39:28;;;;;;;26.33;18.70;;;9.90;99.90;;;;;;4988679;28;20039;-83
2024/03/19 08:41:53;;;;;;;21.40;15.43;;;10.00;99.90;;;;;;4989122;28;20030;-83
2024/03/19 08:44:19;;;;;;;20.13;15.30;;;10.10;99.90;;;;;;4987270;28;20027;-83
2024/03/19 08:46:45;;;;;;;22.02;16.15;;;10.10;99.90;;;;;;4988252;28;20109;-83
2024/03/19 08:49:11;;;;;;;31.63;20.10;;;10.20;99.90;;;;;;4988567;28;20656;-83
2024/03/19 08:51:36;;;;;;;20.67;15.40;;;10.30;99.90;;;;;;4990021;28;20030;-84
2024/03/19 08:54:02;;;;;;;22.03;15.07;;;10.40;99.90;;;;;;4988873;28;21337;-83
2024/03/19 08:56:28;;;;;;;20.67;13.87;;;10.40;99.90;;;;;;4988153;28;20037;-83
2024/03/19 08:58:54;;;;;;;18.47;14.37;;;10.50;99.90;;;;;;4988534;28;20030;-83
2024/03/19 09:01:21;;;;;;;23.37;15.90;;;10.50;99.90;;;;;;4988841;28;20759;-83
2024/03/19 09:03:46;;;;;;;23.73;16.77;;;10.50;99.90;;;;;;4987161;28;20050;-83
2024/03/19 09:06:12;;;;;;;21.23;15.07;;;10.40;99.90;;;;;;4987867;28;20046;-83
2024/03/19 09:08:37;;;;;;;19.07;14.63;;;10.40;99.90;;;;;;4986839;28;20134;-83
2024/03/19 09:11:04;;;;;;;20.43;15.53;;;10.40;99.90;;;;;;4989638;28;20099;-83
2024/03/19 09:13:30;;;;;;;22.97;16.00;;;10.50;99.90;;;;;;4989428;28;20054;-82
2024/03/19 09:15:56;;;;;;;22.23;15.90;;;10.50;99.90;;;;;;4986727;28;20049;-83
2024/03/19 09:18:21;;;;;;;23.80;16.77;;;10.60;99.90;;;;;;4987807;28;20495;-83
2024/03/19 09:20:47;;;;;;;22.20;16.77;;;10.60;99.90;;;;;;4987549;28;20018;-83
2024/03/19 09:23:13;;;;;;;21.07;15.47;;;10.60;99.90;;;;;;4987596;28;21034;-83
2024/03/19 09:25:38;;;;;;;19.08;15.05;;;10.60;99.90;;;;;;4987865;28;20022;-83
2024/03/19 09:28:04;;;;;;;20.17;14.73;;;10.60;99.90;;;;;;4987975;28;20740;-84
2024/03/19 09:30:30;;;;;;;20.00;13.97;;;10.70;99.90;;;;;;4987840;28;20038;-83
2024/03/19 09:32:56;;;;;;;23.33;14.87;;;10.70;99.90;;;;;;4988948;28;20045;-83
2024/03/19 09:35:22;;;;;;;19.90;15.37;;;10.80;99.90;;;;;;4988127;28;20037;-83
2024/03/19 09:37:47;;;;;;;19.17;14.27;;;10.90;99.90;;;;;;4987303;28;20022;-83
2024/03/19 09:40:15;;;;;;;23.58;14.40;;;10.90;99.90;;;;;;4987738;28;20034;-83
2024/03/19 09:42:41;;;;;;;18.20;14.30;;;11.00;99.90;;;;;;4987868;28;20117;-83
2024/03/19 09:45:17;;;;;;;18.95;13.73;;;11.10;99.90;;;;;;4986931;28;20027;-83
2024/03/19 09:47:42;;;;;;;19.05;13.63;;;11.20;99.90;;;;;;4987268;28;20394;-83
2024/03/19 09:50:15;;;;;;;18.65;13.95;;;11.50;99.90;;;;;;4987121;28;20022;-83
2024/03/19 09:52:41;;;;;;;18.05;13.48;;;11.70;99.90;;;;;;4986087;28;20045;-83
2024/03/19 09:55:14;;;;;;;17.92;13.20;;;12.00;99.90;;;;;;4984954;28;20026;-83
2024/03/19 09:57:43;;;;;;;16.05;12.55;;;12.20;99.90;;;;;;5000771;28;20491;-83
2024/03/19 10:00:18;;;;;;;16.55;12.13;;;12.40;99.90;;;;;;4983929;28;20441;-83
2024/03/19 10:02:44;;;;;;;14.27;10.73;;;12.60;99.90;;;;;;4987767;28;20148;-83
2024/03/19 10:05:15;;;;;;;17.67;10.93;;;12.90;99.90;;;;;;5003129;28;20121;-83
2024/03/19 10:07:40;;;;;;;11.77;10.02;;;13.20;99.90;;;;;;4985252;28;20822;-83
2024/03/19 10:10:06;;;;;;;13.02;10.02;;;13.40;99.90;;;;;;4987813;28;20034;-83
2024/03/19 10:12:32;;;;;;;13.68;9.43;;;13.60;99.90;;;;;;4987388;28;20053;-84
2024/03/19 10:15:04;;;;;;;13.52;10.30;;;13.80;99.90;;;;;;4985312;28;20038;-83
2024/03/19 10:17:30;;;;;;;15.13;11.63;;;14.00;99.90;;;;;;4985681;28;20035;-84
2024/03/19 10:19:56;;;;;;;18.60;13.48;;;14.10;99.90;;;;;;4985014;28;20045;-84
2024/03/19 10:22:21;;;;;;;16.27;11.98;;;14.00;99.90;;;;;;4987157;28;20035;-83
2024/03/19 10:24:47;;;;;;;15.60;11.65;;;13.70;99.90;;;;;;4985468;28;20032;-84
2024/03/19 10:27:16;;;;;;;13.65;11.60;;;13.50;99.90;;;;;;4987490;28;20035;-84
2024/03/19 10:29:45;;;;;;;16.80;12.02;;;13.50;99.90;;;;;;4986780;28;20038;-84
2024/03/19 10:32:11;;;;;;;14.38;11.25;;;13.40;99.90;;;;;;4986795;28;20042;-83
2024/03/19 10:34:37;;;;;;;15.05;12.18;;;13.50;99.90;;;;;;4986332;28;20022;-84
2024/03/19 10:37:04;;;;;;;13.98;10.85;;;13.50;99.90;;;;;;4986961;28;20093;-83
2024/03/19 10:39:34;;;;;;;14.55;11.15;;;13.40;99.90;;;;;;4986694;28;20026;-84
2024/03/19 10:42:03;;;;;;;14.57;10.90;;;13.20;99.90;;;;;;4986793;28;20026;-84
2024/03/19 10:44:35;;;;;;;17.27;12.35;;;13.00;99.90;;;;;;4989042;28;21155;-84
2024/03/19 10:47:01;;;;;;;15.27;11.27;;;12.90;99.90;;;;;;4986078;28;20042;-84
2024/03/19 10:49:27;;;;;;;14.50;10.38;;;13.00;99.90;;;;;;4987302;28;20022;-84
2024/03/19 10:52:11;;;;;;;14.60;9.73;;;13.20;99.90;;;;;;4986333;28;20502;-84
2024/03/19 10:54:41;;;;;;;15.60;11.35;;;13.40;99.90;;;;;;4986074;28;20194;-84
2024/03/19 10:57:16;;;;;;;15.32;11.07;;;13.60;99.90;;;;;;4986920;28;20110;-84
2024/03/19 10:59:42;;;;;;;15.30;10.98;;;13.80;99.90;;;;;;4985499;28;20023;-84
2024/03/19 11:02:13;;;;;;;13.73;9.93;;;14.00;99.90;;;;;;4986107;28;20045;-84
2024/03/19 11:04:39;;;;;;;12.80;10.77;;;14.20;99.90;;;;;;4986813;28;20023;-84
2024/03/19 11:07:07;;;;;;;14.60;10.75;;;14.40;99.90;;;;;;4986637;28;20157;-84
2024/03/19 11:09:33;;;;;;;17.15;11.30;;;14.20;99.90;;;;;;4987636;28;20034;-84
2024/03/19 11:12:04;;;;;;;15.82;10.75;;;14.10;99.90;;;;;;4985222;28;20026;-84
2024/03/19 11:14:31;;;;;;;14.70;10.75;;;13.90;99.90;;;;;;4987831;28;20098;-84
2024/03/19 11:16:57;;;;;;;13.93;11.23;;;13.70;99.90;;;;;;4988043;28;20062;-84
2024/03/19 11:19:24;;;;;;;13.75;11.10;;;13.50;99.90;;;;;;4990267;28;20031;-84
2024/03/19 11:21:50;;;;;;;13.05;9.63;;;13.40;99.90;;;;;;4990164;28;21427;-84
2024/03/19 11:24:28;;;;;;;13.52;10.20;;;13.60;99.90;;;;;;4986982;28;20122;-84
2024/03/19 11:27:00;;;;;;;12.55;9.65;;;13.80;99.90;;;;;;4984629;28;20726;-84
2024/03/19 11:29:37;;;;;;;11.85;9.07;;;14.20;99.90;;;;;;4985241;28;20030;-84
2024/03/19 11:32:06;;;;;;;11.10;8.32;;;14.60;99.90;;;;;;4985028;28;20862;-84
2024/03/19 11:34:32;;;;;;;12.80;9.05;;;15.00;99.90;;;;;;5000150;28;20041;-84
2024/03/19 11:36:59;;;;;;;12.70;7.32;;;15.20;99.90;;;;;;4985138;28;20031;-84
2024/03/19 11:39:25;;;;;;;11.23;9.05;;;15.50;99.90;;;;;;4984300;28;20034;-84
2024/03/19 11:41:51;;;;;;;12.68;9.38;;;15.60;99.90;;;;;;4981364;28;20032;-84
2024/03/19 11:44:19;;;;;;;10.15;7.72;;;15.70;99.90;;;;;;4987277;28;20093;-84
2024/03/19 11:46:51;;;;;;;13.25;9.70;;;15.80;99.90;;;;;;4986786;28;20145;-84
2024/03/19 11:49:24;;;;;;;11.38;7.97;;;16.00;99.90;;;;;;4988761;28;20137;-84
2024/03/19 11:52:00;;;;;;;12.98;10.25;;;16.00;99.90;;;;;;4988554;28;20572;-83
2024/03/19 11:54:35;;;;;;;14.90;11.55;;;16.00;99.90;;;;;;4986243;28;20841;-84
2024/03/19 11:57:01;;;;;;;15.60;11.05;;;15.90;99.90;;;;;;4985005;28;20110;-83
2024/03/19 11:59:29;;;;;;;13.35;10.93;;;15.90;99.90;;;;;;4985938;28;20044;-83
2024/03/19 12:01:58;;;;;;;14.02;10.98;;;15.80;99.90;;;;;;4987621;28;20093;-84
2024/03/19 12:04:25;;;;;;;11.80;9.30;;;15.90;99.90;;;;;;4988439;28;20033;-84
2024/03/19 12:06:52;;;;;;;11.10;8.68;;;15.90;99.90;;;;;;4984641;28;20109;-83
2024/03/19 12:09:19;;;;;;;11.30;7.95;;;16.00;99.90;;;;;;4989266;28;20617;-83
2024/03/19 12:11:45;;;;;;;12.55;10.07;;;16.00;99.90;;;;;;4987209;28;20037;-84
2024/03/19 12:14:15;;;;;;;11.45;9.82;;;16.10;99.90;;;;;;4986638;28;20073;-83
2024/03/19 12:16:47;;;;;;;12.98;10.30;;;16.00;99.90;;;;;;4985955;28;20105;-83
2024/03/19 12:19:14;;;;;;;12.20;9.00;;;16.20;99.90;;;;;;4987288;28;20471;-83
2024/03/19 12:21:45;;;;;;;12.18;9.43;;;16.10;99.90;;;;;;4986927;28;20026;-83
2024/03/19 12:24:12;;;;;;;9.93;8.25;;;16.20;99.90;;;;;;4986521;28;20026;-83
2024/03/19 12:26:43;;;;;;;10.68;7.50;;;16.20;99.90;;;;;;4985163;28;20022;-83
2024/03/19 12:29:12;;;;;;;9.32;7.78;;;16.20;99.90;;;;;;4987515;28;20026;-82
2024/03/19 12:31:48;;;;;;;9.77;6.78;;;16.50;99.90;;;;;;4987115;28;20102;-83